Gulkana, Alaska
Current Conditions -  °F | °C
As of 11:53 AM on Saturday 22 Nov 2014 (Local Time) from PAGK Reporting Station
Few Clouds Few Clouds  
Wind Chill:   Ceiling: Unl
Heat Index:   Visibility: 10mi
Dew Point:   Wind: 0mph
Humidity: 77%   Direction: NA
Pressure: 29.27"   Gusts: NA
Location:  62.25°N, 145.42°W
Report Text: PAGK 222053Z AUTO 00000KT 10SM FEW090 M14/M17 A2927 RMK AO2 SLP961 T11391172 51016 TSNO $
Loading
Personal Weather Stations






























Interactive Weather Map New forecast layout! Learn more

10-Day Weather Forecast

Advertisements
Track Severe Weather on mobile